createdAt,value
2019-04-27T00:00:09.267Z,68.60
2019-04-27T00:03:02.262Z,68.80
2019-04-27T00:05:48.786Z,68.13
2019-04-27T00:08:28.508Z,67.66
2019-04-27T00:11:17.113Z,67.81
2019-04-27T00:13:47.133Z,67.68
2019-04-27T00:16:36.070Z,67.39
2019-04-27T00:19:16.439Z,67.96
2019-04-27T00:21:58.781Z,67.78
2019-04-27T00:24:28.820Z,67.12
2019-04-27T00:26:58.816Z,67.84
2019-04-27T00:29:28.837Z,67.21
2019-04-27T00:31:58.818Z,66.88
2019-04-27T00:34:28.762Z,67.01
2019-04-27T00:37:24.045Z,66.92
2019-04-27T00:40:03.536Z,67.17
2019-04-27T00:42:35.640Z,67.59
2019-04-27T00:45:07.024Z,67.67
2019-04-27T00:47:37.069Z,67.75
2019-04-27T00:50:08.327Z,67.79
2019-04-27T00:52:38.216Z,67.94
2019-04-27T00:55:08.221Z,68.49
2019-04-27T00:57:58.993Z,68.21
2019-04-27T01:00:47.284Z,67.85
2019-04-27T01:03:40.563Z,67.80
2019-04-27T01:06:10.585Z,66.65
2019-04-27T01:08:40.531Z,66.94
2019-04-27T01:11:10.502Z,66.27
2019-04-27T01:13:40.540Z,67.22
2019-04-27T01:16:13.177Z,66.78
2019-04-27T01:18:42.367Z,68.13
2019-04-27T01:21:12.448Z,69.30
2019-04-27T01:23:42.460Z,68.84
2019-04-27T01:26:30.567Z,69.18
2019-04-27T01:29:04.148Z,69.94
2019-04-27T01:31:34.054Z,69.89
2019-04-27T01:34:04.032Z,70.99
2019-04-27T01:36:33.908Z,71.41
2019-04-27T01:39:06.429Z,71.57
2019-04-27T01:41:36.437Z,72.85
2019-04-27T01:44:06.420Z,74.21
2019-04-27T01:46:36.345Z,74.10
2019-04-27T01:49:06.699Z,74.26
2019-04-27T01:51:36.760Z,75.43
2019-04-27T01:54:10.220Z,75.12
2019-04-27T01:56:40.007Z,75.56
2019-04-27T01:59:09.978Z,76.24
2019-04-27T02:02:03.217Z,76.45
2019-04-27T02:04:43.868Z,76.21
2019-04-27T02:07:13.878Z,76.55
2019-04-27T02:09:43.865Z,75.21
2019-04-27T02:12:13.981Z,74.75
2019-04-27T02:14:43.948Z,75.83
2019-04-27T02:17:13.991Z,75.92
2019-04-27T02:19:43.984Z,76.40
2019-04-27T02:22:14.814Z,77.10
2019-04-27T02:24:44.831Z,78.09
2019-04-27T02:27:16.551Z,77.72
2019-04-27T02:30:04.113Z,77.40
2019-04-27T02:32:55.844Z,76.61
2019-04-27T02:35:25.745Z,76.35
2019-04-27T02:37:55.655Z,76.51
2019-04-27T02:40:55.818Z,75.82
2019-04-27T02:43:33.200Z,75.91
2019-04-27T02:46:04.351Z,76.24
2019-04-27T02:48:34.385Z,76.62
2019-04-27T02:51:06.447Z,76.12
2019-04-27T02:53:55.929Z,76.15
2019-04-27T02:56:26.022Z,76.21
2019-04-27T02:58:55.945Z,76.17
2019-04-27T03:01:30.585Z,75.61
2019-04-27T03:04:00.549Z,75.77
2019-04-27T03:06:31.763Z,75.87
2019-04-27T03:09:01.629Z,76.16
2019-04-27T03:11:33.288Z,75.86
2019-04-27T03:14:40.603Z,75.42
2019-04-27T03:17:22.769Z,75.39
2019-04-27T03:20:19.947Z,75.58
2019-04-27T03:22:54.837Z,75.63
2019-04-27T03:25:45.518Z,75.60
2019-04-27T03:28:19.671Z,75.71
2019-04-27T03:30:52.209Z,76.00
2019-04-27T03:33:22.169Z,76.41
2019-04-27T03:35:53.279Z,77.44
2019-04-27T03:38:23.538Z,79.68
2019-04-27T03:40:53.566Z,79.60
2019-04-27T03:43:24.972Z,79.28
2019-04-27T03:45:55.495Z,79.81
2019-04-27T03:48:29.029Z,81.18
2019-04-27T03:51:23.081Z,80.24
2019-04-27T03:54:04.097Z,80.80
2019-04-27T03:56:56.151Z,80.13
2019-04-27T03:59:34.514Z,79.62
2019-04-27T04:02:04.589Z,79.92
2019-04-27T04:04:34.604Z,79.76
2019-04-27T04:07:22.766Z,80.12
2019-04-27T04:09:52.806Z,79.97
2019-04-27T04:12:40.762Z,79.85
2019-04-27T04:15:14.438Z,79.44
2019-04-27T04:17:44.469Z,79.59
2019-04-27T04:20:14.651Z,79.44
2019-04-27T04:22:44.590Z,79.08
2019-04-27T04:25:16.242Z,79.49
2019-04-27T04:27:46.063Z,79.16
2019-04-27T04:30:16.171Z,79.21
2019-04-27T04:32:46.073Z,79.35
2019-04-27T04:35:21.178Z,78.78
2019-04-27T04:37:52.922Z,79.37
2019-04-27T04:40:30.669Z,79.20
2019-04-27T04:43:06.080Z,79.15
2019-04-27T04:46:00.516Z,79.00
2019-04-27T04:48:30.500Z,78.79
2019-04-27T04:51:00.477Z,78.39
2019-04-27T04:53:31.513Z,78.45
2019-04-27T04:56:01.534Z,78.31
2019-04-27T04:58:31.520Z,78.11
2019-04-27T05:01:01.991Z,77.81
2019-04-27T05:03:32.093Z,77.59
2019-04-27T05:06:02.028Z,77.52
2019-04-27T05:08:33.174Z,77.07
2019-04-27T05:11:04.311Z,77.32
2019-04-27T05:13:34.231Z,77.01
2019-04-27T05:16:04.145Z,76.65
2019-04-27T05:18:33.958Z,76.52
2019-04-27T05:21:13.690Z,76.55
2019-04-27T05:23:43.703Z,76.32
2019-04-27T05:26:13.657Z,76.35
2019-04-27T05:28:43.480Z,75.72
2019-04-27T05:31:13.354Z,76.36
2019-04-27T05:33:43.283Z,76.42
2019-04-27T05:36:13.449Z,76.23
2019-04-27T05:38:45.975Z,75.89
2019-04-27T05:41:15.176Z,76.26
2019-04-27T05:44:13.233Z,75.95
2019-04-27T05:46:53.707Z,75.43
2019-04-27T05:49:31.087Z,75.73
2019-04-27T05:52:01.077Z,74.99
2019-04-27T05:54:31.055Z,74.85
2019-04-27T05:57:00.874Z,76.08
2019-04-27T05:59:30.854Z,77.86
2019-04-27T06:02:00.830Z,78.84
2019-04-27T06:04:30.758Z,78.55
2019-04-27T06:07:01.124Z,79.35
2019-04-27T06:09:31.026Z,79.81
2019-04-27T06:12:00.854Z,79.66
2019-04-27T06:14:30.686Z,79.96
2019-04-27T06:17:00.588Z,79.55
2019-04-27T06:19:30.419Z,79.87
2019-04-27T06:22:01.343Z,79.92
2019-04-27T06:24:31.482Z,79.45
2019-04-27T06:27:01.413Z,79.08
2019-04-27T06:29:31.325Z,78.23
2019-04-27T06:32:01.333Z,77.77
2019-04-27T06:34:31.315Z,77.40
2019-04-27T06:37:01.250Z,75.76
2019-04-27T06:39:31.143Z,76.27
2019-04-27T06:42:01.416Z,76.28
2019-04-27T06:44:31.359Z,75.79
2019-04-27T06:47:01.294Z,75.78
2019-04-27T06:49:31.217Z,75.15
2019-04-27T06:52:01.075Z,74.95
2019-04-27T06:54:31.089Z,75.27
2019-04-27T06:57:00.987Z,74.22
2019-04-27T06:59:30.893Z,73.48
2019-04-27T07:02:00.975Z,73.37
2019-04-27T07:04:31.832Z,72.78
2019-04-27T07:07:01.868Z,72.82
2019-04-27T07:09:31.729Z,71.78
2019-04-27T07:12:01.784Z,73.29
2019-04-27T07:14:31.666Z,72.74
2019-04-27T07:17:01.594Z,72.53
2019-04-27T07:19:31.547Z,72.16
2019-04-27T07:22:01.473Z,72.34
2019-04-27T07:24:31.491Z,71.86
2019-04-27T07:27:01.342Z,72.84
2019-04-27T07:29:31.184Z,71.62
2019-04-27T07:32:02.156Z,71.87
2019-04-27T07:34:32.230Z,72.62
2019-04-27T07:37:02.101Z,72.73
2019-04-27T07:39:32.002Z,72.48
2019-04-27T07:42:01.942Z,69.91
2019-04-27T07:44:38.954Z,71.43
2019-04-27T07:47:23.018Z,69.40
2019-04-27T07:49:52.938Z,70.02
2019-04-27T07:52:22.996Z,68.82
2019-04-27T07:54:52.825Z,70.32
2019-04-27T07:57:22.782Z,69.95
2019-04-27T07:59:52.700Z,71.52
2019-04-27T08:02:22.614Z,67.37
2019-04-27T08:04:52.555Z,67.07
2019-04-27T08:07:22.386Z,65.92
2019-04-27T08:09:52.323Z,67.88
2019-04-27T08:12:22.362Z,66.99
2019-04-27T08:14:52.156Z,65.80
2019-04-27T08:17:23.097Z,66.41
2019-04-27T08:19:53.076Z,65.77
2019-04-27T08:22:23.949Z,65.74
2019-04-27T08:24:53.854Z,64.33
2019-04-27T08:27:42.219Z,64.20
2019-04-27T08:30:43.509Z,64.59
2019-04-27T08:33:13.808Z,62.54
2019-04-27T08:35:43.729Z,62.63
2019-04-27T08:38:13.710Z,61.32
2019-04-27T08:40:43.595Z,61.90
2019-04-27T08:43:13.626Z,60.83
2019-04-27T08:45:43.488Z,61.05
2019-04-27T08:48:13.421Z,62.71
2019-04-27T08:50:43.294Z,59.78
2019-04-27T08:53:13.188Z,58.69
2019-04-27T08:55:43.028Z,58.67
2019-04-27T08:58:13.957Z,57.91
2019-04-27T09:00:43.951Z,58.52
2019-04-27T09:03:13.920Z,57.67
2019-04-27T09:05:43.942Z,56.38
2019-04-27T09:08:39.031Z,57.49
2019-04-27T09:11:29.019Z,55.49
2019-04-27T09:14:09.107Z,55.27
2019-04-27T09:17:02.969Z,51.71
2019-04-27T09:19:49.224Z,52.59
2019-04-27T09:22:20.762Z,53.03
2019-04-27T09:24:50.875Z,51.69
2019-04-27T09:27:20.852Z,49.65
2019-04-27T09:29:50.792Z,50.16
2019-04-27T09:32:20.888Z,48.71
2019-04-27T09:34:50.908Z,48.25
2019-04-27T09:37:20.841Z,48.82
2019-04-27T09:39:50.743Z,47.71
2019-04-27T09:42:20.654Z,47.71
2019-04-27T09:44:50.497Z,47.65
2019-04-27T09:47:20.326Z,51.80
2019-04-27T09:49:50.241Z,53.84
2019-04-27T09:52:26.305Z,54.04
2019-04-27T09:54:51.826Z,54.16
2019-04-27T09:57:21.725Z,53.73
2019-04-27T09:59:51.711Z,53.79
2019-04-27T10:02:21.603Z,55.28
2019-04-27T10:04:51.800Z,58.72
2019-04-27T10:07:21.865Z,58.43
2019-04-27T10:09:51.699Z,59.17
2019-04-27T10:12:21.684Z,57.90
2019-04-27T10:14:51.582Z,59.36
2019-04-27T10:17:21.408Z,57.42
2019-04-27T10:19:51.262Z,56.49
2019-04-27T10:22:21.298Z,52.03
2019-04-27T10:24:51.230Z,53.75
2019-04-27T10:27:21.070Z,53.75
2019-04-27T10:29:51.857Z,50.82
2019-04-27T10:32:21.761Z,50.87
2019-04-27T10:34:51.627Z,50.18
2019-04-27T10:37:21.547Z,50.53
2019-04-27T10:39:51.450Z,53.47
2019-04-27T10:42:21.284Z,54.63
2019-04-27T10:44:51.108Z,57.69
2019-04-27T10:47:21.010Z,55.23
2019-04-27T10:49:50.863Z,54.18
2019-04-27T10:52:20.847Z,54.52
2019-04-27T10:54:50.674Z,57.29
2019-04-27T10:57:20.487Z,52.98
2019-04-27T10:59:50.347Z,50.88
2019-04-27T11:02:20.269Z,50.90
2019-04-27T11:04:58.924Z,51.33
2019-04-27T11:07:32.927Z,46.46
2019-04-27T11:10:03.389Z,45.64
2019-04-27T11:12:33.344Z,43.12
2019-04-27T11:15:03.321Z,45.07
2019-04-27T11:17:33.261Z,47.68
2019-04-27T11:20:03.254Z,48.50
2019-04-27T11:22:33.252Z,47.60
2019-04-27T11:25:03.062Z,45.77
2019-04-27T11:27:32.964Z,45.69
2019-04-27T11:30:02.872Z,45.68
2019-04-27T11:32:34.628Z,42.70
2019-04-27T11:35:13.408Z,43.46
2019-04-27T11:37:43.334Z,43.88
2019-04-27T11:40:13.804Z,47.61
2019-04-27T11:42:43.771Z,47.07
2019-04-27T11:45:13.947Z,46.43
2019-04-27T11:47:43.946Z,46.14
2019-04-27T11:50:14.326Z,44.63
2019-04-27T11:52:45.715Z,44.21
2019-04-27T11:55:17.275Z,43.66
2019-04-27T11:57:47.306Z,44.54
2019-04-27T12:00:19.763Z,44.60
2019-04-27T12:02:49.733Z,44.97
2019-04-27T12:05:19.822Z,44.00
2019-04-27T12:07:49.731Z,43.06
2019-04-27T12:10:20.326Z,43.48
2019-04-27T12:12:50.219Z,44.82
2019-04-27T12:15:20.995Z,45.46
2019-04-27T12:17:50.925Z,47.38
2019-04-27T12:20:20.880Z,47.70
2019-04-27T12:22:50.827Z,47.89
2019-04-27T12:25:21.782Z,48.90
2019-04-27T12:28:10.781Z,48.68
2019-04-27T12:30:49.162Z,49.40
2019-04-27T12:33:19.071Z,50.32
2019-04-27T12:35:48.969Z,49.88
2019-04-27T12:38:20.185Z,50.26
2019-04-27T12:40:50.083Z,49.68
2019-04-27T12:43:20.199Z,48.78
2019-04-27T12:45:50.194Z,48.69
2019-04-27T12:48:20.289Z,48.32
2019-04-27T12:50:50.222Z,47.72
2019-04-27T12:53:49.952Z,47.91
2019-04-27T12:56:18.190Z,48.52
2019-04-27T12:58:56.484Z,49.15
2019-04-27T13:01:26.906Z,47.08
2019-04-27T13:03:59.063Z,46.73
2019-04-27T13:06:29.598Z,45.83
2019-04-27T13:08:59.558Z,44.94
2019-04-27T13:11:29.546Z,44.03
2019-04-27T13:13:59.467Z,44.59
2019-04-27T13:16:30.509Z,45.42
2019-04-27T13:19:00.397Z,45.98
2019-04-27T13:21:30.438Z,46.32
2019-04-27T13:24:04.510Z,45.71
2019-04-27T13:26:33.063Z,44.04
2019-04-27T13:29:03.062Z,43.63
2019-04-27T13:31:32.966Z,45.85
2019-04-27T13:34:02.942Z,46.16
2019-04-27T13:36:33.153Z,47.30
2019-04-27T13:39:06.343Z,47.40
2019-04-27T13:41:36.644Z,46.68
2019-04-27T13:44:06.715Z,46.30
2019-04-27T13:46:58.470Z,47.91
2019-04-27T13:49:37.845Z,47.24
2019-04-27T13:52:12.863Z,46.69
2019-04-27T13:54:42.799Z,45.74
2019-04-27T13:57:12.844Z,43.93
2019-04-27T13:59:42.699Z,42.52
2019-04-27T14:02:13.544Z,42.16
2019-04-27T14:04:43.607Z,42.02
2019-04-27T14:07:13.579Z,41.88
2019-04-27T14:09:43.552Z,42.61
2019-04-27T14:12:21.318Z,42.78
2019-04-27T14:14:51.498Z,43.11
2019-04-27T14:17:21.602Z,42.73
2019-04-27T14:19:51.451Z,43.45
2019-04-27T14:22:22.339Z,42.42
2019-04-27T14:24:52.227Z,43.13
2019-04-27T14:27:25.501Z,42.68
2019-04-27T14:29:57.099Z,43.48
2019-04-27T14:32:28.703Z,44.68
2019-04-27T14:34:59.209Z,44.09
2019-04-27T14:37:29.281Z,43.84
2019-04-27T14:39:59.784Z,45.45
2019-04-27T14:42:31.257Z,45.26
2019-04-27T14:45:01.233Z,44.99
2019-04-27T14:47:32.320Z,45.19
2019-04-27T14:50:02.369Z,45.12
2019-04-27T14:52:32.366Z,45.83
2019-04-27T14:55:02.401Z,45.40
2019-04-27T14:57:32.418Z,44.90
2019-04-27T15:00:02.397Z,43.06
2019-04-27T15:02:32.330Z,43.10
2019-04-27T15:05:02.181Z,42.27
2019-04-27T15:07:32.027Z,43.46
2019-04-27T15:10:01.907Z,44.57
2019-04-27T15:12:32.431Z,43.30
2019-04-27T15:15:02.455Z,42.92
2019-04-27T15:17:32.287Z,44.47
2019-04-27T15:20:06.604Z,43.83
2019-04-27T15:22:36.613Z,43.01
2019-04-27T15:25:11.954Z,42.55
2019-04-27T15:27:43.627Z,41.71
2019-04-27T15:30:22.186Z,43.35
2019-04-27T15:33:16.043Z,43.61
2019-04-27T15:35:48.814Z,44.32
2019-04-27T15:38:22.782Z,44.19
2019-04-27T15:41:10.549Z,45.08
2019-04-27T15:43:41.636Z,44.85
2019-04-27T15:46:11.896Z,44.92
2019-04-27T15:48:41.829Z,45.76
2019-04-27T15:51:17.408Z,44.74
2019-04-27T15:53:45.828Z,43.43
2019-04-27T15:56:15.433Z,43.09
2019-04-27T15:58:45.424Z,42.74
2019-04-27T16:01:15.415Z,41.16
2019-04-27T16:03:45.442Z,40.60
2019-04-27T16:06:15.438Z,40.64
2019-04-27T16:08:47.053Z,43.04
2019-04-27T16:11:19.690Z,44.98
2019-04-27T16:13:48.929Z,45.77
2019-04-27T16:16:19.530Z,45.88
2019-04-27T16:18:49.507Z,45.88
2019-04-27T16:21:20.059Z,46.13
2019-04-27T16:23:50.156Z,46.13
2019-04-27T16:26:20.271Z,45.73
2019-04-27T16:28:53.422Z,46.02
2019-04-27T16:31:24.823Z,46.65
2019-04-27T16:33:54.110Z,46.74
2019-04-27T16:36:25.211Z,46.04
2019-04-27T16:39:08.310Z,45.55
2019-04-27T16:41:41.852Z,45.92
2019-04-27T16:44:11.317Z,45.70
2019-04-27T16:46:43.035Z,46.52
2019-04-27T16:49:14.809Z,46.61
2019-04-27T16:51:44.942Z,46.23
2019-04-27T16:54:17.672Z,46.70
2019-04-27T16:56:53.089Z,47.33
2019-04-27T16:59:39.255Z,48.10
2019-04-27T17:01:50.438Z,48.86
2019-04-27T17:04:20.310Z,48.65
2019-04-27T17:06:50.243Z,49.24
2019-04-27T17:09:20.161Z,49.18
2019-04-27T17:11:51.745Z,49.16
2019-04-27T17:14:59.072Z,48.81
2019-04-27T17:17:38.666Z,48.42
2019-04-27T17:20:12.911Z,49.39
2019-04-27T17:22:41.591Z,49.50
2019-04-27T17:25:15.337Z,49.23
2019-04-27T17:27:49.634Z,49.24
2019-04-27T17:30:20.125Z,49.56
2019-04-27T17:32:58.827Z,49.37
2019-04-27T17:35:30.290Z,49.33
2019-04-27T17:38:03.722Z,49.53
2019-04-27T17:40:34.519Z,49.24
2019-04-27T17:43:06.819Z,49.75
2019-04-27T17:45:36.181Z,50.00
2019-04-27T17:48:10.687Z,51.10
2019-04-27T17:50:38.760Z,56.03
2019-04-27T17:53:08.769Z,57.18
2019-04-27T17:55:38.767Z,58.26
2019-04-27T17:58:08.761Z,59.02
2019-04-27T18:00:43.631Z,58.55
2019-04-27T18:03:12.542Z,58.89
2019-04-27T18:05:43.753Z,58.84
2019-04-27T18:08:18.337Z,59.39
2019-04-27T18:10:46.472Z,60.22
2019-04-27T18:13:19.006Z,60.83
2019-04-27T18:15:53.991Z,64.72
2019-04-27T18:18:33.083Z,66.95
2019-04-27T18:21:02.993Z,70.33
2019-04-27T18:23:34.838Z,73.27
2019-04-27T18:26:17.564Z,73.95
2019-04-27T18:28:45.950Z,73.82
2019-04-27T18:31:17.920Z,74.96
2019-04-27T18:33:48.984Z,73.81
2019-04-27T18:36:19.016Z,74.93
2019-04-27T18:38:49.665Z,74.28
2019-04-27T18:41:19.799Z,73.82
2019-04-27T18:43:52.264Z,74.31
2019-04-27T18:46:24.458Z,75.72
2019-04-27T18:49:11.940Z,76.25
2019-04-27T18:52:04.457Z,78.87
2019-04-27T18:54:33.151Z,78.42
2019-04-27T18:57:04.877Z,79.13
2019-04-27T18:59:34.945Z,79.60
2019-04-27T19:02:04.970Z,79.93
2019-04-27T19:04:34.972Z,80.38
2019-04-27T19:07:04.960Z,80.72
2019-04-27T19:09:35.327Z,82.22
2019-04-27T19:12:05.537Z,81.93
2019-04-27T19:14:35.446Z,82.14
2019-04-27T19:17:05.446Z,83.09
2019-04-27T19:19:35.373Z,83.06
2019-04-27T19:22:05.458Z,84.05
2019-04-27T19:24:35.379Z,82.76
2019-04-27T19:27:42.737Z,81.44
2019-04-27T19:30:24.715Z,81.33
2019-04-27T19:32:54.637Z,80.54
2019-04-27T19:35:24.655Z,80.69
2019-04-27T19:37:54.642Z,81.03
2019-04-27T19:40:24.685Z,80.27
2019-04-27T19:42:54.789Z,80.65
2019-04-27T19:45:24.830Z,80.34
2019-04-27T19:47:54.733Z,80.75
2019-04-27T19:50:24.730Z,80.44
2019-04-27T19:52:54.640Z,79.96
2019-04-27T19:55:24.620Z,79.81
2019-04-27T19:57:54.530Z,78.75
2019-04-27T20:00:48.278Z,78.74
2019-04-27T20:03:21.553Z,77.70
2019-04-27T20:05:52.515Z,77.70
2019-04-27T20:08:24.839Z,77.03
2019-04-27T20:10:54.762Z,76.60
2019-04-27T20:13:24.710Z,77.27
2019-04-27T20:15:57.443Z,76.95
2019-04-27T20:18:27.558Z,76.98
2019-04-27T20:20:57.457Z,76.34
2019-04-27T20:23:27.391Z,75.92
2019-04-27T20:25:57.377Z,76.24
2019-04-27T20:28:27.196Z,76.46
2019-04-27T20:30:57.110Z,76.81
2019-04-27T20:33:27.054Z,77.13
2019-04-27T20:35:56.988Z,78.14
2019-04-27T20:38:26.889Z,77.98
2019-04-27T20:40:56.798Z,77.58
2019-04-27T20:43:26.657Z,77.39
2019-04-27T20:45:56.590Z,77.98
2019-04-27T20:48:27.619Z,78.48
2019-04-27T20:50:57.679Z,77.80
2019-04-27T20:53:32.312Z,78.73
2019-04-27T20:56:02.310Z,78.82
2019-04-27T20:58:32.239Z,78.89
2019-04-27T21:01:02.218Z,79.28
2019-04-27T21:03:41.063Z,78.69
2019-04-27T21:06:28.042Z,78.06
2019-04-27T21:08:57.932Z,77.25
2019-04-27T21:11:43.383Z,77.13
2019-04-27T21:14:13.466Z,77.50
2019-04-27T21:16:43.589Z,77.91
2019-04-27T21:19:15.099Z,77.84
2019-04-27T21:21:45.119Z,78.08
2019-04-27T21:24:14.979Z,77.86
2019-04-27T21:26:47.327Z,78.01
2019-04-27T21:29:17.149Z,77.90
2019-04-27T21:31:47.043Z,77.85
2019-04-27T21:34:16.875Z,76.81
2019-04-27T21:36:46.782Z,73.95
2019-04-27T21:39:16.705Z,75.12
2019-04-27T21:41:46.763Z,76.85
2019-04-27T21:44:16.951Z,76.86
2019-04-27T21:46:46.769Z,77.29
2019-04-27T21:49:16.666Z,77.60
2019-04-27T21:52:04.659Z,76.17
2019-04-27T21:54:35.472Z,76.52
2019-04-27T21:57:05.422Z,76.39
2019-04-27T21:59:35.423Z,76.40
2019-04-27T22:02:06.869Z,75.75
2019-04-27T22:04:36.983Z,77.39
2019-04-27T22:07:06.940Z,77.44
2019-04-27T22:09:36.938Z,77.59
2019-04-27T22:12:06.950Z,77.17
2019-04-27T22:14:36.945Z,77.09
2019-04-27T22:17:06.833Z,77.82
2019-04-27T22:19:36.821Z,77.19
2019-04-27T22:22:12.564Z,78.35
2019-04-27T22:24:43.091Z,78.39
2019-04-27T22:27:13.107Z,77.75
2019-04-27T22:29:42.933Z,77.29
2019-04-27T22:32:12.988Z,78.19
2019-04-27T22:34:43.001Z,78.78
2019-04-27T22:37:12.895Z,78.30
2019-04-27T22:39:52.762Z,78.27
2019-04-27T22:42:41.725Z,78.19
2019-04-27T22:45:16.553Z,79.01
2019-04-27T22:47:46.380Z,79.38
2019-04-27T22:50:16.442Z,78.75
2019-04-27T22:52:46.494Z,78.46
2019-04-27T22:55:16.514Z,77.50
2019-04-27T22:57:51.767Z,77.79
2019-04-27T23:00:41.794Z,77.62
2019-04-27T23:03:15.301Z,77.12
2019-04-27T23:05:45.211Z,78.27
2019-04-27T23:08:15.289Z,76.92
2019-04-27T23:10:45.186Z,76.88
2019-04-27T23:13:15.144Z,77.20
2019-04-27T23:15:47.369Z,77.05
2019-04-27T23:18:17.277Z,76.02
2019-04-27T23:20:47.264Z,77.09
2019-04-27T23:23:17.254Z,77.20
2019-04-27T23:25:47.142Z,76.47
2019-04-27T23:28:17.081Z,75.94
2019-04-27T23:31:02.267Z,73.90
2019-04-27T23:33:31.279Z,75.92
2019-04-27T23:36:01.617Z,76.32
2019-04-27T23:38:31.590Z,76.38
2019-04-27T23:41:01.886Z,76.88
2019-04-27T23:43:31.899Z,76.52
2019-04-27T23:46:01.954Z,76.34
2019-04-27T23:48:32.156Z,76.49
2019-04-27T23:51:12.750Z,75.64
2019-04-27T23:53:42.654Z,75.71
2019-04-27T23:56:15.581Z,75.15
2019-04-27T23:58:45.477Z,75.88
